Knob Fork, West Virginia
Current Conditions -  °F | °C
As of 1:53 PM on Saturday 25 Oct 2014 (Local Time) from KCKB Reporting Station
Broken Clouds Broken Clouds  
Wind Chill: 63°   Ceiling: 10000
Heat Index: 63°   Visibility: 10mi
Dew Point: 49°   Wind: 9mph
Humidity: 60%   Direction: 220°SW
Pressure: 29.94"   Gusts: 20mph
Location:  39.6641°N, 80.5775°W
Report Text: KCKB 251753Z 22008G17KT 10SM SCT029 BKN100 17/09 A2994 RMK AO2 SLP132 T01720094 10172 20056 56027
Loading
Personal Weather Stations






























Interactive Weather Map
Tropical Storm Tracking
New forecast layout! Learn more

10-Day Weather Forecast

Advertisements
Track Severe Weather on mobile